createdAt,value
2023-03-02T00:02:22.128Z,89.71
2023-03-02T00:04:55.960Z,89.12
2023-03-02T00:07:32.853Z,90.28
2023-03-02T00:10:02.832Z,89.75
2023-03-02T00:12:35.156Z,89.47
2023-03-02T00:15:04.952Z,89.57
2023-03-02T00:17:34.355Z,89.87
2023-03-02T00:20:11.315Z,89.87
2023-03-02T00:22:43.706Z,89.54
2023-03-02T00:25:15.256Z,89.32
2023-03-02T00:27:45.771Z,89.41
2023-03-02T00:30:16.969Z,89.56
2023-03-02T00:32:46.639Z,89.88
2023-03-02T00:35:16.484Z,90.38
2023-03-02T00:37:47.137Z,90.30
2023-03-02T00:40:17.568Z,89.82
2023-03-02T00:42:47.030Z,89.48
2023-03-02T00:45:16.935Z,89.33
2023-03-02T00:47:45.948Z,89.09
2023-03-02T00:50:15.499Z,88.87
2023-03-02T00:52:45.254Z,89.35
2023-03-02T00:55:14.737Z,89.59
2023-03-02T00:57:44.925Z,90.01
2023-03-02T01:00:14.542Z,88.52
2023-03-02T01:02:44.860Z,87.05
2023-03-02T01:05:16.199Z,87.83
2023-03-02T01:07:45.586Z,88.78
2023-03-02T01:10:16.912Z,89.86
2023-03-02T01:12:46.994Z,90.07
2023-03-02T01:15:17.093Z,90.20
2023-03-02T01:17:47.391Z,92.30
2023-03-02T01:20:18.808Z,92.12
2023-03-02T01:22:48.131Z,91.89
2023-03-02T01:25:17.832Z,92.05
2023-03-02T01:27:47.654Z,91.32
2023-03-02T01:30:17.651Z,91.27
2023-03-02T01:32:47.120Z,91.04
2023-03-02T01:35:16.409Z,90.95
2023-03-02T01:37:48.518Z,90.64
2023-03-02T01:40:18.299Z,90.16
2023-03-02T01:42:57.987Z,89.81
2023-03-02T01:45:52.947Z,89.34
2023-03-02T01:48:46.664Z,88.99
2023-03-02T01:51:17.889Z,89.28
2023-03-02T01:53:49.746Z,88.93
2023-03-02T01:56:22.961Z,88.75
2023-03-02T01:58:57.551Z,88.81
2023-03-02T02:01:28.379Z,89.66
2023-03-02T02:03:58.063Z,88.78
2023-03-02T02:06:49.533Z,88.15
2023-03-02T02:09:22.259Z,88.25
2023-03-02T02:11:51.877Z,87.46
2023-03-02T02:14:22.469Z,87.22
2023-03-02T02:16:52.591Z,87.56
2023-03-02T02:19:45.340Z,87.60
2023-03-02T02:22:23.546Z,87.16
2023-03-02T02:24:59.745Z,86.97
2023-03-02T02:27:30.678Z,88.07
2023-03-02T02:30:03.935Z,88.76
2023-03-02T02:32:39.127Z,88.74
2023-03-02T02:35:20.883Z,89.30
2023-03-02T02:37:58.624Z,88.71
2023-03-02T02:40:57.607Z,86.24
2023-03-02T02:43:32.158Z,82.98
2023-03-02T02:46:04.470Z,80.32
2023-03-02T02:48:35.079Z,79.89
2023-03-02T02:51:05.101Z,79.82
2023-03-02T02:53:59.655Z,79.80
2023-03-02T02:56:33.434Z,80.22
2023-03-02T02:59:16.182Z,78.80
2023-03-02T03:01:47.386Z,78.77
2023-03-02T03:04:24.647Z,78.38
2023-03-02T03:07:02.406Z,78.90
2023-03-02T03:09:33.050Z,78.83
2023-03-02T03:12:17.811Z,78.28
2023-03-02T03:14:47.884Z,77.00
2023-03-02T03:17:18.606Z,75.97
2023-03-02T03:19:48.660Z,75.78
2023-03-02T03:22:19.027Z,73.84
2023-03-02T03:24:49.497Z,74.30
2023-03-02T03:27:20.350Z,74.78
2023-03-02T03:29:49.867Z,74.25
2023-03-02T03:32:21.563Z,74.63
2023-03-02T03:34:50.985Z,74.29
2023-03-02T03:37:21.876Z,74.75
2023-03-02T03:39:51.919Z,74.52
2023-03-02T03:42:22.154Z,74.05
2023-03-02T03:44:52.122Z,74.50
2023-03-02T03:47:25.162Z,73.94
2023-03-02T03:49:55.953Z,73.88
2023-03-02T03:52:31.455Z,73.85
2023-03-02T03:55:02.539Z,74.32
2023-03-02T03:57:33.921Z,74.25
2023-03-02T04:00:06.913Z,74.45
2023-03-02T04:02:43.734Z,74.33
2023-03-02T04:05:14.476Z,74.93
2023-03-02T04:07:43.985Z,75.08
2023-03-02T04:10:14.089Z,75.22
2023-03-02T04:12:44.679Z,75.65
2023-03-02T04:15:17.287Z,75.81
2023-03-02T04:17:47.924Z,76.32
2023-03-02T04:20:20.223Z,76.26
2023-03-02T04:22:53.107Z,76.89
2023-03-02T04:25:25.552Z,76.76
2023-03-02T04:27:55.862Z,77.37
2023-03-02T04:30:27.785Z,77.07
2023-03-02T04:33:00.908Z,77.31
2023-03-02T04:35:33.643Z,76.75
2023-03-02T04:38:05.202Z,76.63
2023-03-02T04:40:35.863Z,76.79
2023-03-02T04:43:05.346Z,76.87
2023-03-02T04:45:35.225Z,77.02
2023-03-02T04:48:05.714Z,76.13
2023-03-02T04:50:35.617Z,76.40
2023-03-02T04:53:04.943Z,76.60
2023-03-02T04:55:34.393Z,76.94
2023-03-02T04:58:04.296Z,76.48
2023-03-02T05:00:34.858Z,76.77
2023-03-02T05:03:05.833Z,76.55
2023-03-02T05:05:35.686Z,76.71
2023-03-02T05:08:06.757Z,76.56
2023-03-02T05:10:36.051Z,76.62
2023-03-02T05:13:06.547Z,76.92
2023-03-02T05:15:39.281Z,77.03
2023-03-02T05:18:11.981Z,76.70
2023-03-02T05:20:41.484Z,77.02
2023-03-02T05:23:25.738Z,76.34
2023-03-02T05:25:57.370Z,76.33
2023-03-02T05:28:28.299Z,76.43
2023-03-02T05:30:57.652Z,77.04
2023-03-02T05:33:28.013Z,76.00
2023-03-02T05:35:57.560Z,76.36
2023-03-02T05:38:28.185Z,76.41
2023-03-02T05:40:57.566Z,76.31
2023-03-02T05:43:26.948Z,75.56
2023-03-02T05:46:01.202Z,75.01
2023-03-02T05:48:32.430Z,75.41
2023-03-02T05:51:01.741Z,75.47
2023-03-02T05:53:31.856Z,76.17
2023-03-02T05:56:00.692Z,75.28
2023-03-02T05:58:30.250Z,75.29
2023-03-02T06:00:59.977Z,74.72
2023-03-02T06:03:29.930Z,75.28
2023-03-02T06:05:59.228Z,74.81
2023-03-02T06:08:28.667Z,74.48
2023-03-02T06:10:59.669Z,74.36
2023-03-02T06:13:29.078Z,73.79
2023-03-02T06:15:58.603Z,73.99
2023-03-02T06:18:28.155Z,73.54
2023-03-02T06:20:57.968Z,72.90
2023-03-02T06:23:29.888Z,72.28
2023-03-02T06:25:59.923Z,71.42
2023-03-02T06:28:29.832Z,70.97
2023-03-02T06:31:01.142Z,70.66
2023-03-02T06:33:38.216Z,71.58
2023-03-02T06:36:08.795Z,71.42
2023-03-02T06:38:38.853Z,71.16
2023-03-02T06:41:08.097Z,71.11
2023-03-02T06:43:37.477Z,71.72
2023-03-02T06:46:07.554Z,70.30
2023-03-02T06:48:37.517Z,69.89
2023-03-02T06:51:09.622Z,69.64
2023-03-02T06:53:38.934Z,69.56
2023-03-02T06:56:09.042Z,69.34
2023-03-02T06:58:38.492Z,68.54
2023-03-02T07:01:08.669Z,69.12
2023-03-02T07:03:38.893Z,68.29
2023-03-02T07:06:08.548Z,67.67
2023-03-02T07:08:37.668Z,67.69
2023-03-02T07:11:10.393Z,66.87
2023-03-02T07:13:41.115Z,66.95
2023-03-02T07:16:14.477Z,67.46
2023-03-02T07:18:43.943Z,66.28
2023-03-02T07:21:13.940Z,67.43
2023-03-02T07:23:43.322Z,66.17
2023-03-02T07:26:12.300Z,65.76
2023-03-02T07:28:44.306Z,65.50
2023-03-02T07:31:13.672Z,65.45
2023-03-02T07:33:43.746Z,65.30
2023-03-02T07:36:13.468Z,64.92
2023-03-02T07:38:42.970Z,64.97
2023-03-02T07:41:13.272Z,64.99
2023-03-02T07:43:42.560Z,64.67
2023-03-02T07:46:11.865Z,64.26
2023-03-02T07:48:41.711Z,62.76
2023-03-02T07:51:11.211Z,62.83
2023-03-02T07:53:40.867Z,62.78
2023-03-02T07:56:12.255Z,61.34
2023-03-02T07:58:41.601Z,63.06
2023-03-02T08:01:12.584Z,63.62
2023-03-02T08:03:42.217Z,64.33
2023-03-02T08:06:13.571Z,64.25
2023-03-02T08:08:43.601Z,63.82
2023-03-02T08:11:16.125Z,63.37
2023-03-02T08:13:46.307Z,64.07
2023-03-02T08:16:16.997Z,63.88
2023-03-02T08:18:48.013Z,63.13
2023-03-02T08:21:22.140Z,62.57
2023-03-02T08:23:52.306Z,62.19
2023-03-02T08:26:21.974Z,62.07
2023-03-02T08:28:51.724Z,62.88
2023-03-02T08:31:20.868Z,62.69
2023-03-02T08:33:50.812Z,63.59
2023-03-02T08:36:21.198Z,64.81
2023-03-02T08:38:52.731Z,64.09
2023-03-02T08:41:24.674Z,64.78
2023-03-02T08:43:55.260Z,65.33
2023-03-02T08:46:24.950Z,65.03
2023-03-02T08:48:54.292Z,64.55
2023-03-02T08:51:27.339Z,64.65
2023-03-02T08:53:57.944Z,63.91
2023-03-02T08:56:31.802Z,64.21
2023-03-02T08:59:04.515Z,64.43
2023-03-02T09:01:36.636Z,64.05
2023-03-02T09:04:09.104Z,64.73
2023-03-02T09:06:42.277Z,64.80
2023-03-02T09:09:14.606Z,63.89
2023-03-02T09:11:46.541Z,63.88
2023-03-02T09:14:16.533Z,64.78
2023-03-02T09:16:47.040Z,63.86
2023-03-02T09:19:16.889Z,64.15
2023-03-02T09:21:46.181Z,62.21
2023-03-02T09:24:16.484Z,62.08
2023-03-02T09:26:46.357Z,61.08
2023-03-02T09:29:15.384Z,60.74
2023-03-02T09:31:44.956Z,59.92
2023-03-02T09:34:15.249Z,60.76
2023-03-02T09:36:44.456Z,60.00
2023-03-02T09:39:14.459Z,59.89
2023-03-02T09:42:18.713Z,60.66
2023-03-02T09:45:09.013Z,60.72
2023-03-02T09:48:06.211Z,60.09
2023-03-02T09:50:41.381Z,59.98
2023-03-02T09:53:26.489Z,60.46
2023-03-02T09:56:01.714Z,60.36
2023-03-02T09:58:38.565Z,60.17
2023-03-02T10:01:18.723Z,60.81
2023-03-02T10:03:57.089Z,59.74
2023-03-02T10:06:27.695Z,59.53
2023-03-02T10:08:57.747Z,59.98
2023-03-02T10:11:36.042Z,60.38
2023-03-02T10:14:14.030Z,59.11
2023-03-02T10:16:53.861Z,59.21
2023-03-02T10:19:44.429Z,58.63
2023-03-02T10:22:18.428Z,59.59
2023-03-02T10:24:59.603Z,58.41
2023-03-02T10:27:36.913Z,58.06
2023-03-02T10:30:09.985Z,59.04
2023-03-02T10:32:50.500Z,58.01
2023-03-02T10:35:25.371Z,59.33
2023-03-02T10:38:13.469Z,58.87
2023-03-02T10:40:48.344Z,58.32
2023-03-02T10:43:27.150Z,58.23
2023-03-02T10:46:05.235Z,57.31
2023-03-02T10:48:49.407Z,56.86
2023-03-02T10:51:28.968Z,57.21
2023-03-02T10:54:21.225Z,57.81
2023-03-02T10:56:54.643Z,57.69
2023-03-02T10:59:42.043Z,57.00
2023-03-02T11:02:15.249Z,57.64
2023-03-02T11:04:45.397Z,56.16
2023-03-02T11:07:19.781Z,57.13
2023-03-02T11:10:08.676Z,56.06
2023-03-02T11:12:38.559Z,55.44
2023-03-02T11:15:30.855Z,55.83
2023-03-02T11:18:07.892Z,55.39
2023-03-02T11:20:42.670Z,56.74
2023-03-02T11:23:36.726Z,56.13
2023-03-02T11:26:16.474Z,56.54
2023-03-02T11:28:59.124Z,56.38
2023-03-02T11:31:37.888Z,57.05
2023-03-02T11:34:21.431Z,57.51
2023-03-02T11:37:15.096Z,55.71
2023-03-02T11:40:20.194Z,56.46
2023-03-02T11:42:50.799Z,57.19
2023-03-02T11:45:23.309Z,59.63
2023-03-02T11:48:23.381Z,59.09
2023-03-02T11:50:56.829Z,58.49
2023-03-02T11:53:30.843Z,57.40
2023-03-02T11:56:00.394Z,57.61
2023-03-02T11:58:31.954Z,58.47
2023-03-02T12:01:02.921Z,57.61
2023-03-02T12:03:33.544Z,55.83
2023-03-02T12:06:06.074Z,55.75
2023-03-02T12:08:42.100Z,54.95
2023-03-02T12:11:19.006Z,53.95
2023-03-02T12:14:02.404Z,54.59
2023-03-02T12:16:42.153Z,54.06
2023-03-02T12:19:19.780Z,55.41
2023-03-02T12:22:10.465Z,54.00
2023-03-02T12:24:44.963Z,55.55
2023-03-02T12:27:27.503Z,55.52
2023-03-02T12:30:12.975Z,56.22
2023-03-02T12:32:45.154Z,56.49
2023-03-02T12:35:17.072Z,56.70
2023-03-02T12:38:17.770Z,57.17
2023-03-02T12:41:01.348Z,59.22
2023-03-02T12:43:41.508Z,59.12
2023-03-02T12:46:33.562Z,60.39
2023-03-02T12:49:28.098Z,60.71
2023-03-02T12:52:00.080Z,63.37
2023-03-02T12:54:32.368Z,60.56
2023-03-02T12:57:09.528Z,59.87
2023-03-02T12:59:38.796Z,61.50
2023-03-02T13:02:18.273Z,60.29
2023-03-02T13:05:11.016Z,63.52
2023-03-02T13:07:51.376Z,61.70
2023-03-02T13:10:43.770Z,61.26
2023-03-02T13:13:22.937Z,61.17
2023-03-02T13:15:54.610Z,61.65
2023-03-02T13:18:27.692Z,63.36
2023-03-02T13:20:57.632Z,63.51
2023-03-02T13:23:30.071Z,63.17
2023-03-02T13:26:02.759Z,63.01
2023-03-02T13:28:38.685Z,62.67
2023-03-02T13:31:23.428Z,61.85
2023-03-02T13:33:56.723Z,60.75
2023-03-02T13:36:36.037Z,59.66
2023-03-02T13:39:09.894Z,60.21
2023-03-02T13:41:41.249Z,61.98
2023-03-02T13:44:33.428Z,60.57
2023-03-02T13:47:03.651Z,61.42
2023-03-02T13:49:36.179Z,62.09
2023-03-02T13:52:28.874Z,61.70
2023-03-02T13:54:59.582Z,62.43
2023-03-02T13:57:32.329Z,63.45
2023-03-02T14:00:02.326Z,63.42
2023-03-02T14:02:33.714Z,64.51
2023-03-02T14:05:04.005Z,65.06
2023-03-02T14:07:33.495Z,65.51
2023-03-02T14:10:05.235Z,65.19
2023-03-02T14:12:34.773Z,65.63
2023-03-02T14:15:08.149Z,66.07
2023-03-02T14:17:39.496Z,66.45
2023-03-02T14:20:15.840Z,66.56
2023-03-02T14:22:45.614Z,67.52
2023-03-02T14:25:16.315Z,68.28
2023-03-02T14:27:47.885Z,68.26
2023-03-02T14:30:23.701Z,68.58
2023-03-02T14:32:53.043Z,68.33
2023-03-02T14:35:26.001Z,68.75
2023-03-02T14:37:56.286Z,68.88
2023-03-02T14:40:29.079Z,70.41
2023-03-02T14:42:58.328Z,69.54
2023-03-02T14:45:30.480Z,70.01
2023-03-02T14:48:03.431Z,69.77
2023-03-02T14:50:40.731Z,70.14
2023-03-02T14:53:17.804Z,69.83
2023-03-02T14:55:48.136Z,69.59
2023-03-02T14:58:21.473Z,69.69
2023-03-02T15:00:51.592Z,70.37
2023-03-02T15:03:23.501Z,71.72
2023-03-02T15:06:01.278Z,70.45
2023-03-02T15:08:32.801Z,70.42
2023-03-02T15:11:02.860Z,69.81
2023-03-02T15:13:31.960Z,70.50
2023-03-02T15:16:04.781Z,69.90
2023-03-02T15:18:36.704Z,70.45
2023-03-02T15:21:06.490Z,70.45
2023-03-02T15:23:37.514Z,69.76
2023-03-02T15:26:07.539Z,70.28
2023-03-02T15:28:38.167Z,69.91
2023-03-02T15:31:10.330Z,70.04
2023-03-02T15:33:41.022Z,69.88
2023-03-02T15:36:10.647Z,70.19
2023-03-02T15:38:40.389Z,70.13
2023-03-02T15:41:14.986Z,71.07
2023-03-02T15:43:45.906Z,71.30
2023-03-02T15:46:14.939Z,71.76
2023-03-02T15:48:45.192Z,72.07
2023-03-02T15:51:19.642Z,71.92
2023-03-02T15:53:55.246Z,71.99
2023-03-02T15:56:32.900Z,72.35
2023-03-02T15:59:10.240Z,71.70
2023-03-02T16:01:41.918Z,71.71
2023-03-02T16:04:14.208Z,72.00
2023-03-02T16:06:49.068Z,72.12
2023-03-02T16:09:20.193Z,72.00
2023-03-02T16:11:53.371Z,71.81
2023-03-02T16:14:29.208Z,71.53
2023-03-02T16:17:21.718Z,71.52
2023-03-02T16:20:03.033Z,71.79
2023-03-02T16:22:34.321Z,72.09
2023-03-02T16:25:13.062Z,72.15
2023-03-02T16:27:48.973Z,72.37
2023-03-02T16:30:23.446Z,72.56
2023-03-02T16:32:59.250Z,72.63
2023-03-02T16:35:34.883Z,73.82
2023-03-02T16:38:19.325Z,73.69
2023-03-02T16:40:50.634Z,73.84
2023-03-02T16:43:26.128Z,74.08
2023-03-02T16:45:57.740Z,74.27
2023-03-02T16:48:32.467Z,75.16
2023-03-02T16:51:05.692Z,74.50
2023-03-02T16:53:39.849Z,74.37
2023-03-02T16:56:11.766Z,74.95
2023-03-02T16:58:43.328Z,75.80
2023-03-02T17:01:19.625Z,74.73
2023-03-02T17:03:52.142Z,76.04
2023-03-02T17:06:24.979Z,75.49
2023-03-02T17:08:55.766Z,75.84
2023-03-02T17:11:25.925Z,76.00
2023-03-02T17:13:57.573Z,76.03
2023-03-02T17:16:27.621Z,75.74
2023-03-02T17:18:58.591Z,75.99
2023-03-02T17:21:30.530Z,76.54
2023-03-02T17:24:02.421Z,76.25
2023-03-02T17:26:32.939Z,75.96
2023-03-02T17:29:03.769Z,76.06
2023-03-02T17:31:34.172Z,76.06
2023-03-02T17:34:04.808Z,76.56
2023-03-02T17:36:36.852Z,76.19
2023-03-02T17:39:09.509Z,76.39
2023-03-02T17:41:42.359Z,77.02
2023-03-02T17:44:18.920Z,76.90
2023-03-02T17:46:48.554Z,77.68
2023-03-02T17:49:22.353Z,77.30
2023-03-02T17:51:52.420Z,78.21
2023-03-02T17:54:24.538Z,78.42
2023-03-02T17:57:06.688Z,78.76
2023-03-02T17:59:44.302Z,78.44
2023-03-02T18:02:18.333Z,79.09
2023-03-02T18:04:53.248Z,78.79
2023-03-02T18:07:28.706Z,79.93
2023-03-02T18:09:59.138Z,79.73
2023-03-02T18:12:32.436Z,80.53
2023-03-02T18:15:07.067Z,80.17
2023-03-02T18:17:35.992Z,80.85
2023-03-02T18:20:06.719Z,81.81
2023-03-02T18:22:38.680Z,82.37
2023-03-02T18:25:10.131Z,82.97
2023-03-02T18:27:43.729Z,82.91
2023-03-02T18:30:14.425Z,83.13
2023-03-02T18:32:44.178Z,83.50
2023-03-02T18:35:16.100Z,83.47
2023-03-02T18:37:45.842Z,83.72
2023-03-02T18:40:16.635Z,85.05
2023-03-02T18:42:45.917Z,84.57
2023-03-02T18:45:31.624Z,84.53
2023-03-02T18:48:02.359Z,85.32
2023-03-02T18:50:36.384Z,84.43
2023-03-02T18:53:05.799Z,84.90
2023-03-02T18:55:38.287Z,84.39
2023-03-02T18:58:08.749Z,83.56
2023-03-02T19:00:40.232Z,84.71
2023-03-02T19:03:10.165Z,84.49
2023-03-02T19:05:40.007Z,84.15
2023-03-02T19:08:12.343Z,84.97
2023-03-02T19:10:45.153Z,84.49
2023-03-02T19:13:15.753Z,84.85
2023-03-02T19:15:47.888Z,84.86
2023-03-02T19:18:20.915Z,85.82
2023-03-02T19:20:52.853Z,85.48
2023-03-02T19:23:22.992Z,85.16
2023-03-02T19:25:53.340Z,85.86
2023-03-02T19:28:32.253Z,85.37
2023-03-02T19:31:09.772Z,86.05
2023-03-02T19:33:41.022Z,86.02
2023-03-02T19:36:13.468Z,85.10
2023-03-02T19:38:43.822Z,86.35
2023-03-02T19:41:17.571Z,86.78
2023-03-02T19:43:47.898Z,85.93
2023-03-02T19:46:20.515Z,85.66
2023-03-02T19:48:49.818Z,85.35
2023-03-02T19:51:21.073Z,86.06
2023-03-02T19:53:51.840Z,86.33
2023-03-02T19:56:27.573Z,86.06
2023-03-02T19:59:01.086Z,85.89
2023-03-02T20:01:33.381Z,86.60
2023-03-02T20:04:03.293Z,87.02
2023-03-02T20:06:35.160Z,85.95
2023-03-02T20:09:07.632Z,86.22
2023-03-02T20:11:39.196Z,86.40
2023-03-02T20:14:08.987Z,87.40
2023-03-02T20:16:39.381Z,87.82
2023-03-02T20:19:09.510Z,86.67
2023-03-02T20:21:45.674Z,88.04
2023-03-02T20:24:19.712Z,88.30
2023-03-02T20:26:49.485Z,88.58
2023-03-02T20:29:19.600Z,87.97
2023-03-02T20:31:49.477Z,88.26
2023-03-02T20:34:20.975Z,89.03
2023-03-02T20:36:50.962Z,88.41
2023-03-02T20:39:27.358Z,89.22
2023-03-02T20:41:57.480Z,89.53
2023-03-02T20:44:32.299Z,89.39
2023-03-02T20:47:07.181Z,90.29
2023-03-02T20:49:38.545Z,90.79
2023-03-02T20:52:10.494Z,90.71
2023-03-02T20:54:43.235Z,90.56
2023-03-02T20:57:17.458Z,90.36
2023-03-02T20:59:49.092Z,90.39
2023-03-02T21:02:20.875Z,89.81
2023-03-02T21:04:50.956Z,88.27
2023-03-02T21:07:20.437Z,91.47
2023-03-02T21:09:49.784Z,91.28
2023-03-02T21:12:20.075Z,90.14
2023-03-02T21:14:49.956Z,91.83
2023-03-02T21:17:20.024Z,94.26
2023-03-02T21:19:49.678Z,94.21
2023-03-02T21:22:21.642Z,95.16
2023-03-02T21:24:53.579Z,93.10
2023-03-02T21:27:23.772Z,95.45
2023-03-02T21:29:53.197Z,97.02
2023-03-02T21:32:23.864Z,97.15
2023-03-02T21:34:53.235Z,95.60
2023-03-02T21:37:25.032Z,96.37
2023-03-02T21:39:54.888Z,94.86
2023-03-02T21:42:24.718Z,94.77
2023-03-02T21:44:54.239Z,93.33
2023-03-02T21:47:24.155Z,93.88
2023-03-02T21:49:54.109Z,94.72
2023-03-02T21:52:23.428Z,91.94
2023-03-02T21:54:52.857Z,94.08
2023-03-02T21:57:25.272Z,94.59
2023-03-02T21:59:55.752Z,95.87
2023-03-02T22:02:25.679Z,95.42
2023-03-02T22:04:55.498Z,96.71
2023-03-02T22:07:25.061Z,96.71
2023-03-02T22:09:54.327Z,96.05
2023-03-02T22:12:24.716Z,96.04
2023-03-02T22:14:55.609Z,95.37
2023-03-02T22:17:26.217Z,91.62
2023-03-02T22:19:55.561Z,91.03
2023-03-02T22:22:28.313Z,89.46
2023-03-02T22:24:57.888Z,89.96
2023-03-02T22:27:29.802Z,90.85
2023-03-02T22:30:02.612Z,91.72
2023-03-02T22:32:36.794Z,92.60
2023-03-02T22:35:24.400Z,91.37
2023-03-02T22:38:03.095Z,92.27
2023-03-02T22:40:35.919Z,92.93
2023-03-02T22:43:25.641Z,92.18
2023-03-02T22:45:59.365Z,90.82
2023-03-02T22:48:31.480Z,90.22
2023-03-02T22:51:06.820Z,87.89
2023-03-02T22:53:40.956Z,88.25
2023-03-02T22:56:37.574Z,89.97
2023-03-02T22:59:25.382Z,91.11
2023-03-02T23:02:09.273Z,89.57
2023-03-02T23:04:39.104Z,89.14
2023-03-02T23:07:24.680Z,89.26
2023-03-02T23:09:54.203Z,90.51
2023-03-02T23:12:28.091Z,95.52
2023-03-02T23:14:59.551Z,95.80
2023-03-02T23:17:39.291Z,95.46
2023-03-02T23:20:12.586Z,93.39
2023-03-02T23:22:43.079Z,92.11
2023-03-02T23:25:12.120Z,96.47
2023-03-02T23:27:41.850Z,97.17
2023-03-02T23:30:11.864Z,96.99
2023-03-02T23:32:41.432Z,91.17
2023-03-02T23:35:10.965Z,90.00
2023-03-02T23:37:40.470Z,89.53
2023-03-02T23:40:12.227Z,90.49
2023-03-02T23:42:41.656Z,89.86
2023-03-02T23:45:12.034Z,87.84
2023-03-02T23:47:41.251Z,87.52
2023-03-02T23:50:12.600Z,91.54
2023-03-02T23:52:42.976Z,91.99
2023-03-02T23:55:12.602Z,95.01
2023-03-02T23:57:43.320Z,96.21
